Date,TemperatureHighF,TemperatureAvgF,TemperatureLowF,DewpointHighF,DewpointAvgF,DewpointLowF,HumidityHigh,HumidityAvg,HumidityLow,PressureMaxIn,PressureMinIn,WindSpeedMaxMPH,WindSpeedAvgMPH,GustSpeedMaxMPH,PrecipitationSumIn
2013-2-1,35.2,28.2,20.7,28.7,13.3,3.5,91,55,35,30.30,29.73,8,3,13,0.00
2013-2-2,32.8,24.8,15.2,26.7,12.1,4.7,93,60,38,30.31,29.93,5,2,7,0.00
2013-2-3,34.9,29.3,22.4,29.9,25.9,20.9,95,87,66,29.93,29.76,4,1,8,0.01
2013-2-4,37.1,31.2,24.2,24.9,17.5,11.6,66,57,49,30.04,29.83,6,2,11,0.00
2013-2-5,41.4,36.9,29.7,33.3,29.9,24.5,94,76,58,29.85,29.78,4,2,8,0.00
2013-2-6,48.2,36.6,27.8,34.8,28.8,23.2,95,75,49,30.29,29.85,5,1,12,0.00
2013-2-7,40.1,35.3,27.5,32.8,28.2,22.4,85,75,63,30.39,30.11,4,1,8,0.00
2013-2-8,44.0,38.5,34.4,41.8,35.5,25.3,97,90,62,30.11,29.61,8,4,17,0.01
2013-2-9,41.0,34.6,29.9,25.2,19.8,15.4,66,55,41,30.31,29.81,8,4,19,0.00
2013-2-10,43.7,33.1,22.1,33.1,20.0,8.0,83,60,27,30.42,30.21,3,1,5,0.00
2013-2-11,57.5,49.4,38.5,54.7,46.4,33.2,98,90,76,30.20,29.65,6,3,10,0.01
2013-2-12,56.2,47.8,36.5,46.5,32.9,27.5,80,58,35,29.92,29.71,4,1,10,0.00
2013-2-13,40.5,37.6,34.5,36.9,34.9,31.6,96,90,78,29.87,29.57,6,3,8,0.01
2013-2-14,45.3,38.1,33.3,34.2,32.4,30.5,96,81,58,29.96,29.67,4,1,5,0.00
2013-2-15,59.7,44.6,35.9,40.9,36.0,32.3,90,73,39,29.97,29.82,6,2,10,0.00
2013-2-16,39.2,34.8,32.4,35.0,32.1,21.3,95,90,64,29.94,29.72,6,2,12,0.01
2013-2-17,32.5,28.9,24.6,21.6,12.5,5.7,66,51,35,30.12,29.72,7,4,18,0.00
2013-2-18,40.8,29.6,21.4,18.4,10.4,7.3,60,46,28,30.31,30.12,4,2,9,0.00
2013-2-19,46.6,43.4,38.3,45.5,39.3,28.5,96,86,65,29.97,29.67,7,3,11,0.01
2013-2-20,40.9,33.9,26.3,34.4,19.5,10.5,88,57,40,30.07,29.77,5,2,13,0.00
2013-2-21,39.7,30.7,23.6,18.1,14.9,10.0,62,52,41,30.24,30.05,6,3,13,0.00
2013-2-22,34.4,32.2,29.6,32.4,24.9,17.1,95,75,53,30.31,30.14,6,1,8,0.01
2013-2-23,44.3,39.2,33.7,43.8,38.6,32.4,98,97,95,30.14,29.72,5,2,8,0.00
2013-2-24,53.4,44.0,33.4,43.5,34.5,20.2,98,72,41,30.02,29.71,7,3,11,0.00
2013-2-25,42.6,34.8,28.8,27.5,23.8,20.4,85,64,51,30.15,30.02,5,1,9,0.00
2013-2-26,47.7,38.4,28.1,47.2,36.0,24.6,98,91,80,30.15,29.50,5,2,10,0.02
2013-2-27,57.5,49.3,42.2,48.9,42.6,35.2,99,79,57,29.62,29.42,6,2,9,0.00
2013-2-28,49.9,43.6,37.7,39.7,33.0,25.2,93,68,40,29.65,29.54,4,1,9,0.01